sensor_id;sensor_type;location;lat;lon;timestamp;P1;durP1;ratioP1;P2;durP2;ratioP2
45039;SDS011;30778;53.574;7.770;2023-02-28T00:00:48;6.78;;;1.80;;
45039;SDS011;30778;53.574;7.770;2023-02-28T00:03:16;5.82;;;1.88;;
45039;SDS011;30778;53.574;7.770;2023-02-28T00:05:41;7.35;;;3.03;;
45039;SDS011;30778;53.574;7.770;2023-02-28T00:08:07;6.72;;;1.88;;
45039;SDS011;30778;53.574;7.770;2023-02-28T00:10:33;2.50;;;1.65;;
45039;SDS011;30778;53.574;7.770;2023-02-28T00:13:03;5.57;;;1.92;;
45039;SDS011;30778;53.574;7.770;2023-02-28T00:15:31;5.50;;;1.70;;
45039;SDS011;30778;53.574;7.770;2023-02-28T00:17:57;2.60;;;1.75;;
45039;SDS011;30778;53.574;7.770;2023-02-28T00:20:22;3.90;;;2.50;;
45039;SDS011;30778;53.574;7.770;2023-02-28T00:22:49;4.40;;;2.47;;
45039;SDS011;30778;53.574;7.770;2023-02-28T00:25:20;6.03;;;2.25;;
45039;SDS011;30778;53.574;7.770;2023-02-28T00:27:47;5.60;;;2.15;;
45039;SDS011;30778;53.574;7.770;2023-02-28T00:30:15;6.68;;;1.95;;
45039;SDS011;30778;53.574;7.770;2023-02-28T00:32:41;8.02;;;2.72;;
45039;SDS011;30778;53.574;7.770;2023-02-28T00:35:07;9.98;;;2.90;;
45039;SDS011;30778;53.574;7.770;2023-02-28T00:37:33;6.82;;;2.63;;
45039;SDS011;30778;53.574;7.770;2023-02-28T00:39:59;5.70;;;2.63;;
45039;SDS011;30778;53.574;7.770;2023-02-28T00:42:25;4.85;;;2.53;;
45039;SDS011;30778;53.574;7.770;2023-02-28T00:44:52;5.70;;;2.80;;
45039;SDS011;30778;53.574;7.770;2023-02-28T00:47:17;5.35;;;3.20;;
45039;SDS011;30778;53.574;7.770;2023-02-28T00:49:43;6.05;;;2.92;;
45039;SDS011;30778;53.574;7.770;2023-02-28T00:52:11;6.85;;;2.78;;
45039;SDS011;30778;53.574;7.770;2023-02-28T00:54:37;8.00;;;3.38;;
45039;SDS011;30778;53.574;7.770;2023-02-28T00:57:02;5.80;;;2.78;;
45039;SDS011;30778;53.574;7.770;2023-02-28T00:59:28;5.18;;;2.90;;
45039;SDS011;30778;53.574;7.770;2023-02-28T01:01:53;6.43;;;3.35;;
45039;SDS011;30778;53.574;7.770;2023-02-28T01:04:20;5.28;;;3.35;;
45039;SDS011;30778;53.574;7.770;2023-02-28T01:06:46;5.50;;;2.50;;
45039;SDS011;30778;53.574;7.770;2023-02-28T01:09:11;10.18;;;3.15;;
45039;SDS011;30778;53.574;7.770;2023-02-28T01:11:37;6.32;;;2.85;;
45039;SDS011;30778;53.574;7.770;2023-02-28T01:14:03;5.38;;;2.58;;
45039;SDS011;30778;53.574;7.770;2023-02-28T01:16:30;5.40;;;2.90;;
45039;SDS011;30778;53.574;7.770;2023-02-28T01:18:56;6.97;;;2.88;;
45039;SDS011;30778;53.574;7.770;2023-02-28T01:21:22;7.07;;;2.95;;
45039;SDS011;30778;53.574;7.770;2023-02-28T01:23:48;8.80;;;3.05;;
45039;SDS011;30778;53.574;7.770;2023-02-28T01:26:16;6.35;;;2.63;;
45039;SDS011;30778;53.574;7.770;2023-02-28T01:28:43;7.25;;;3.03;;
45039;SDS011;30778;53.574;7.770;2023-02-28T01:31:09;10.50;;;4.00;;
45039;SDS011;30778;53.574;7.770;2023-02-28T01:33:36;3.97;;;2.70;;
45039;SDS011;30778;53.574;7.770;2023-02-28T01:36:05;9.70;;;2.88;;
45039;SDS011;30778;53.574;7.770;2023-02-28T01:38:38;4.70;;;2.65;;
45039;SDS011;30778;53.574;7.770;2023-02-28T01:41:04;7.65;;;3.20;;
45039;SDS011;30778;53.574;7.770;2023-02-28T01:46:11;5.93;;;3.05;;
45039;SDS011;30778;53.574;7.770;2023-02-28T01:48:41;6.55;;;2.70;;
45039;SDS011;30778;53.574;7.770;2023-02-28T01:51:13;10.40;;;3.95;;
45039;SDS011;30778;53.574;7.770;2023-02-28T01:53:44;7.35;;;2.83;;
45039;SDS011;30778;53.574;7.770;2023-02-28T01:56:13;6.32;;;3.03;;
45039;SDS011;30778;53.574;7.770;2023-02-28T01:58:51;7.38;;;3.15;;
45039;SDS011;30778;53.574;7.770;2023-02-28T02:01:18;10.77;;;3.40;;
45039;SDS011;30778;53.574;7.770;2023-02-28T02:03:53;7.72;;;2.80;;
45039;SDS011;30778;53.574;7.770;2023-02-28T02:06:34;5.30;;;2.80;;
45039;SDS011;30778;53.574;7.770;2023-02-28T02:09:02;5.07;;;3.22;;
45039;SDS011;30778;53.574;7.770;2023-02-28T02:11:28;6.45;;;2.72;;
45039;SDS011;30778;53.574;7.770;2023-02-28T02:16:49;10.13;;;3.22;;
45039;SDS011;30778;53.574;7.770;2023-02-28T02:25:19;3.65;;;2.20;;
45039;SDS011;30778;53.574;7.770;2023-02-28T02:30:42;10.23;;;3.38;;
45039;SDS011;30778;53.574;7.770;2023-02-28T02:41:04;5.38;;;3.15;;
45039;SDS011;30778;53.574;7.770;2023-02-28T02:46:35;9.20;;;4.50;;
45039;SDS011;30778;53.574;7.770;2023-02-28T02:49:06;6.35;;;3.15;;
45039;SDS011;30778;53.574;7.770;2023-02-28T02:51:36;6.13;;;4.10;;
45039;SDS011;30778;53.574;7.770;2023-02-28T02:54:08;7.07;;;3.83;;
45039;SDS011;30778;53.574;7.770;2023-02-28T02:56:39;6.85;;;3.70;;
45039;SDS011;30778;53.574;7.770;2023-02-28T02:59:09;9.80;;;2.95;;
45039;SDS011;30778;53.574;7.770;2023-02-28T03:01:39;6.72;;;3.60;;
45039;SDS011;30778;53.574;7.770;2023-02-28T03:04:28;6.07;;;3.00;;
45039;SDS011;30778;53.574;7.770;2023-02-28T03:06:54;5.70;;;3.50;;
45039;SDS011;30778;53.574;7.770;2023-02-28T03:09:23;7.47;;;4.00;;
45039;SDS011;30778;53.574;7.770;2023-02-28T03:11:50;9.57;;;3.22;;
45039;SDS011;30778;53.574;7.770;2023-02-28T03:19:55;7.22;;;3.53;;
45039;SDS011;30778;53.574;7.770;2023-02-28T03:25:17;7.45;;;4.03;;
45039;SDS011;30778;53.574;7.770;2023-02-28T03:28:08;6.00;;;3.53;;
45039;SDS011;30778;53.574;7.770;2023-02-28T03:30:51;6.22;;;4.00;;
45039;SDS011;30778;53.574;7.770;2023-02-28T03:36:08;6.20;;;3.92;;
45039;SDS011;30778;53.574;7.770;2023-02-28T03:38:44;9.20;;;3.80;;
45039;SDS011;30778;53.574;7.770;2023-02-28T03:41:24;5.68;;;3.25;;
45039;SDS011;30778;53.574;7.770;2023-02-28T03:43:58;9.55;;;4.18;;
45039;SDS011;30778;53.574;7.770;2023-02-28T03:46:30;8.10;;;4.00;;
45039;SDS011;30778;53.574;7.770;2023-02-28T03:51:33;7.22;;;4.05;;
45039;SDS011;30778;53.574;7.770;2023-02-28T03:54:02;6.68;;;3.53;;
45039;SDS011;30778;53.574;7.770;2023-02-28T03:56:43;5.88;;;4.38;;
45039;SDS011;30778;53.574;7.770;2023-02-28T04:02:07;6.65;;;3.83;;
45039;SDS011;30778;53.574;7.770;2023-02-28T04:04:33;5.57;;;4.03;;
45039;SDS011;30778;53.574;7.770;2023-02-28T04:07:06;6.93;;;4.05;;
45039;SDS011;30778;53.574;7.770;2023-02-28T04:09:33;5.72;;;3.38;;
45039;SDS011;30778;53.574;7.770;2023-02-28T04:11:59;5.68;;;3.75;;
45039;SDS011;30778;53.574;7.770;2023-02-28T04:14:25;7.68;;;3.63;;
45039;SDS011;30778;53.574;7.770;2023-02-28T04:16:51;12.00;;;3.60;;
45039;SDS011;30778;53.574;7.770;2023-02-28T04:19:17;8.63;;;4.10;;
45039;SDS011;30778;53.574;7.770;2023-02-28T04:21:44;8.15;;;4.88;;
45039;SDS011;30778;53.574;7.770;2023-02-28T04:24:12;5.90;;;3.58;;
45039;SDS011;30778;53.574;7.770;2023-02-28T04:26:40;4.88;;;3.65;;
45039;SDS011;30778;53.574;7.770;2023-02-28T04:29:08;5.72;;;4.18;;
45039;SDS011;30778;53.574;7.770;2023-02-28T04:31:35;5.13;;;2.88;;
45039;SDS011;30778;53.574;7.770;2023-02-28T04:34:00;7.55;;;4.10;;
45039;SDS011;30778;53.574;7.770;2023-02-28T04:36:26;4.57;;;3.60;;
45039;SDS011;30778;53.574;7.770;2023-02-28T04:38:52;9.80;;;4.18;;
45039;SDS011;30778;53.574;7.770;2023-02-28T04:41:20;5.30;;;3.90;;
45039;SDS011;30778;53.574;7.770;2023-02-28T04:43:46;8.15;;;4.63;;
45039;SDS011;30778;53.574;7.770;2023-02-28T04:46:12;8.60;;;3.95;;
45039;SDS011;30778;53.574;7.770;2023-02-28T04:48:38;8.95;;;5.07;;
45039;SDS011;30778;53.574;7.770;2023-02-28T04:51:05;10.43;;;4.28;;
45039;SDS011;30778;53.574;7.770;2023-02-28T04:53:33;8.73;;;4.32;;
45039;SDS011;30778;53.574;7.770;2023-02-28T04:55:59;7.22;;;4.80;;
45039;SDS011;30778;53.574;7.770;2023-02-28T04:58:25;6.55;;;4.18;;
45039;SDS011;30778;53.574;7.770;2023-02-28T05:00:52;6.78;;;4.18;;
45039;SDS011;30778;53.574;7.770;2023-02-28T05:03:19;6.72;;;4.07;;
45039;SDS011;30778;53.574;7.770;2023-02-28T05:05:46;8.75;;;4.03;;
45039;SDS011;30778;53.574;7.770;2023-02-28T05:08:12;7.03;;;4.07;;
45039;SDS011;30778;53.574;7.770;2023-02-28T05:10:38;5.97;;;3.75;;
45039;SDS011;30778;53.574;7.770;2023-02-28T05:13:03;7.53;;;4.30;;
45039;SDS011;30778;53.574;7.770;2023-02-28T05:15:29;12.95;;;4.70;;
45039;SDS011;30778;53.574;7.770;2023-02-28T05:17:54;9.18;;;5.00;;
45039;SDS011;30778;53.574;7.770;2023-02-28T05:20:20;8.73;;;4.22;;
45039;SDS011;30778;53.574;7.770;2023-02-28T05:22:46;6.20;;;4.00;;
45039;SDS011;30778;53.574;7.770;2023-02-28T05:25:16;8.48;;;5.20;;
45039;SDS011;30778;53.574;7.770;2023-02-28T05:27:43;11.67;;;4.43;;
45039;SDS011;30778;53.574;7.770;2023-02-28T05:30:11;8.88;;;5.15;;
45039;SDS011;30778;53.574;7.770;2023-02-28T05:32:37;8.63;;;4.45;;
45039;SDS011;30778;53.574;7.770;2023-02-28T05:35:03;9.48;;;5.55;;
45039;SDS011;30778;53.574;7.770;2023-02-28T05:37:29;10.70;;;4.80;;
45039;SDS011;30778;53.574;7.770;2023-02-28T05:39:54;10.68;;;5.10;;
45039;SDS011;30778;53.574;7.770;2023-02-28T05:42:20;7.85;;;4.53;;
45039;SDS011;30778;53.574;7.770;2023-02-28T05:44:45;6.53;;;4.05;;
45039;SDS011;30778;53.574;7.770;2023-02-28T05:47:11;11.95;;;4.28;;
45039;SDS011;30778;53.574;7.770;2023-02-28T05:49:40;9.02;;;5.38;;
45039;SDS011;30778;53.574;7.770;2023-02-28T05:52:06;11.05;;;4.70;;
45039;SDS011;30778;53.574;7.770;2023-02-28T05:54:31;6.78;;;4.75;;
45039;SDS011;30778;53.574;7.770;2023-02-28T05:56:57;5.78;;;4.00;;
45039;SDS011;30778;53.574;7.770;2023-02-28T05:59:23;11.00;;;4.32;;
45039;SDS011;30778;53.574;7.770;2023-02-28T06:01:48;8.15;;;4.28;;
45039;SDS011;30778;53.574;7.770;2023-02-28T06:04:14;8.40;;;5.10;;
45039;SDS011;30778;53.574;7.770;2023-02-28T06:06:45;6.25;;;5.10;;
45039;SDS011;30778;53.574;7.770;2023-02-28T06:09:11;6.88;;;5.00;;
45039;SDS011;30778;53.574;7.770;2023-02-28T06:11:37;7.72;;;4.47;;
45039;SDS011;30778;53.574;7.770;2023-02-28T06:14:03;9.05;;;4.82;;
45039;SDS011;30778;53.574;7.770;2023-02-28T06:16:30;9.57;;;5.60;;
45039;SDS011;30778;53.574;7.770;2023-02-28T06:18:57;9.30;;;5.13;;
45039;SDS011;30778;53.574;7.770;2023-02-28T06:21:24;7.75;;;5.18;;
45039;SDS011;30778;53.574;7.770;2023-02-28T06:23:52;7.88;;;5.20;;
45039;SDS011;30778;53.574;7.770;2023-02-28T06:26:18;10.50;;;5.25;;
45039;SDS011;30778;53.574;7.770;2023-02-28T06:28:44;9.00;;;5.05;;
45039;SDS011;30778;53.574;7.770;2023-02-28T06:31:11;12.20;;;6.57;;
45039;SDS011;30778;53.574;7.770;2023-02-28T06:33:40;8.32;;;4.80;;
45039;SDS011;30778;53.574;7.770;2023-02-28T06:36:08;13.13;;;5.57;;
45039;SDS011;30778;53.574;7.770;2023-02-28T06:38:35;7.72;;;5.25;;
45039;SDS011;30778;53.574;7.770;2023-02-28T06:41:01;8.35;;;5.22;;
45039;SDS011;30778;53.574;7.770;2023-02-28T06:43:29;8.20;;;5.10;;
45039;SDS011;30778;53.574;7.770;2023-02-28T06:45:57;9.98;;;6.15;;
45039;SDS011;30778;53.574;7.770;2023-02-28T06:48:25;10.30;;;6.65;;
45039;SDS011;30778;53.574;7.770;2023-02-28T06:50:51;7.25;;;4.65;;
45039;SDS011;30778;53.574;7.770;2023-02-28T06:53:17;7.97;;;5.00;;
45039;SDS011;30778;53.574;7.770;2023-02-28T06:55:43;7.97;;;5.30;;
45039;SDS011;30778;53.574;7.770;2023-02-28T06:58:09;11.20;;;5.40;;
45039;SDS011;30778;53.574;7.770;2023-02-28T07:00:41;11.13;;;5.90;;
45039;SDS011;30778;53.574;7.770;2023-02-28T07:03:09;12.77;;;6.00;;
45039;SDS011;30778;53.574;7.770;2023-02-28T07:05:35;8.95;;;4.00;;
45039;SDS011;30778;53.574;7.770;2023-02-28T07:08:02;7.53;;;5.20;;
45039;SDS011;30778;53.574;7.770;2023-02-28T07:10:29;8.07;;;4.82;;
45039;SDS011;30778;53.574;7.770;2023-02-28T07:12:56;8.98;;;4.82;;
45039;SDS011;30778;53.574;7.770;2023-02-28T07:15:22;11.45;;;4.45;;
45039;SDS011;30778;53.574;7.770;2023-02-28T07:17:47;9.55;;;5.80;;
45039;SDS011;30778;53.574;7.770;2023-02-28T07:20:13;12.35;;;5.10;;
45039;SDS011;30778;53.574;7.770;2023-02-28T07:22:39;13.02;;;4.57;;
45039;SDS011;30778;53.574;7.770;2023-02-28T07:25:05;5.45;;;4.18;;
45039;SDS011;30778;53.574;7.770;2023-02-28T07:27:31;5.38;;;3.88;;
45039;SDS011;30778;53.574;7.770;2023-02-28T07:29:57;9.13;;;4.97;;
45039;SDS011;30778;53.574;7.770;2023-02-28T07:32:27;5.03;;;3.83;;
45039;SDS011;30778;53.574;7.770;2023-02-28T07:34:53;3.15;;;2.70;;
45039;SDS011;30778;53.574;7.770;2023-02-28T07:37:19;6.43;;;2.88;;
45039;SDS011;30778;53.574;7.770;2023-02-28T07:39:45;6.90;;;3.40;;
45039;SDS011;30778;53.574;7.770;2023-02-28T07:42:11;4.22;;;3.15;;
45039;SDS011;30778;53.574;7.770;2023-02-28T07:44:38;3.40;;;2.45;;
45039;SDS011;30778;53.574;7.770;2023-02-28T07:47:09;3.13;;;2.40;;
45039;SDS011;30778;53.574;7.770;2023-02-28T07:52:06;3.03;;;2.45;;
45039;SDS011;30778;53.574;7.770;2023-02-28T07:54:32;3.35;;;2.08;;
45039;SDS011;30778;53.574;7.770;2023-02-28T07:56:58;5.00;;;2.13;;
45039;SDS011;30778;53.574;7.770;2023-02-28T07:59:24;4.03;;;2.63;;
45039;SDS011;30778;53.574;7.770;2023-02-28T08:01:49;3.13;;;2.50;;
45039;SDS011;30778;53.574;7.770;2023-02-28T08:04:16;3.40;;;2.45;;
45039;SDS011;30778;53.574;7.770;2023-02-28T08:06:42;2.92;;;1.85;;
45039;SDS011;30778;53.574;7.770;2023-02-28T08:09:07;3.47;;;2.22;;
45039;SDS011;30778;53.574;7.770;2023-02-28T08:11:36;4.38;;;1.88;;
45039;SDS011;30778;53.574;7.770;2023-02-28T08:14:02;3.70;;;2.08;;
45039;SDS011;30778;53.574;7.770;2023-02-28T08:16:27;3.97;;;1.92;;
45039;SDS011;30778;53.574;7.770;2023-02-28T08:18:53;2.55;;;2.20;;
45039;SDS011;30778;53.574;7.770;2023-02-28T08:21:19;3.03;;;1.88;;
45039;SDS011;30778;53.574;7.770;2023-02-28T08:23:49;2.92;;;1.38;;
45039;SDS011;30778;53.574;7.770;2023-02-28T08:26:16;5.38;;;2.30;;
45039;SDS011;30778;53.574;7.770;2023-02-28T08:28:42;3.55;;;2.22;;
45039;SDS011;30778;53.574;7.770;2023-02-28T08:31:11;3.45;;;1.80;;
45039;SDS011;30778;53.574;7.770;2023-02-28T08:33:39;4.82;;;2.15;;
45039;SDS011;30778;53.574;7.770;2023-02-28T08:36:05;4.38;;;2.03;;
45039;SDS011;30778;53.574;7.770;2023-02-28T08:38:32;4.22;;;1.67;;
45039;SDS011;30778;53.574;7.770;2023-02-28T08:40:58;4.55;;;2.83;;
45039;SDS011;30778;53.574;7.770;2023-02-28T08:43:25;5.80;;;1.90;;
45039;SDS011;30778;53.574;7.770;2023-02-28T08:45:52;4.50;;;2.40;;
45039;SDS011;30778;53.574;7.770;2023-02-28T08:48:18;5.47;;;2.88;;
45039;SDS011;30778;53.574;7.770;2023-02-28T08:50:44;7.28;;;2.83;;
45039;SDS011;30778;53.574;7.770;2023-02-28T08:53:09;3.95;;;2.38;;
45039;SDS011;30778;53.574;7.770;2023-02-28T08:55:35;4.88;;;2.63;;
45039;SDS011;30778;53.574;7.770;2023-02-28T08:58:00;10.00;;;3.33;;
45039;SDS011;30778;53.574;7.770;2023-02-28T09:00:26;6.68;;;2.78;;
45039;SDS011;30778;53.574;7.770;2023-02-28T09:02:51;8.40;;;4.57;;
45039;SDS011;30778;53.574;7.770;2023-02-28T09:05:20;3.90;;;2.47;;
45039;SDS011;30778;53.574;7.770;2023-02-28T09:07:45;3.75;;;2.22;;
45039;SDS011;30778;53.574;7.770;2023-02-28T09:10:10;4.10;;;2.25;;
45039;SDS011;30778;53.574;7.770;2023-02-28T09:12:36;7.55;;;3.33;;
45039;SDS011;30778;53.574;7.770;2023-02-28T09:15:02;8.07;;;2.90;;
45039;SDS011;30778;53.574;7.770;2023-02-28T09:17:31;8.00;;;3.15;;
45039;SDS011;30778;53.574;7.770;2023-02-28T09:19:56;12.05;;;3.50;;
45039;SDS011;30778;53.574;7.770;2023-02-28T09:22:22;4.63;;;2.15;;
45039;SDS011;30778;53.574;7.770;2023-02-28T09:24:47;5.75;;;2.60;;
45039;SDS011;30778;53.574;7.770;2023-02-28T09:27:13;6.60;;;3.05;;
45039;SDS011;30778;53.574;7.770;2023-02-28T09:29:38;6.75;;;2.45;;
45039;SDS011;30778;53.574;7.770;2023-02-28T09:32:04;3.85;;;2.25;;
45039;SDS011;30778;53.574;7.770;2023-02-28T09:34:32;4.88;;;2.92;;
45039;SDS011;30778;53.574;7.770;2023-02-28T09:36:59;6.55;;;2.75;;
45039;SDS011;30778;53.574;7.770;2023-02-28T09:39:25;7.78;;;2.97;;
45039;SDS011;30778;53.574;7.770;2023-02-28T09:41:52;6.32;;;3.63;;
45039;SDS011;30778;53.574;7.770;2023-02-28T09:46:48;6.25;;;2.50;;
45039;SDS011;30778;53.574;7.770;2023-02-28T09:49:22;5.45;;;2.58;;
45039;SDS011;30778;53.574;7.770;2023-02-28T09:54:23;3.58;;;2.50;;
45039;SDS011;30778;53.574;7.770;2023-02-28T09:56:53;5.63;;;2.78;;
45039;SDS011;30778;53.574;7.770;2023-02-28T10:05:19;8.45;;;3.05;;
45039;SDS011;30778;53.574;7.770;2023-02-28T10:13:13;3.95;;;2.13;;
45039;SDS011;30778;53.574;7.770;2023-02-28T10:15:47;5.13;;;2.15;;
45039;SDS011;30778;53.574;7.770;2023-02-28T10:18:20;4.13;;;2.40;;
45039;SDS011;30778;53.574;7.770;2023-02-28T10:20:50;4.72;;;2.10;;
45039;SDS011;30778;53.574;7.770;2023-02-28T10:23:34;7.40;;;1.67;;
45039;SDS011;30778;53.574;7.770;2023-02-28T10:26:09;6.07;;;1.88;;
45039;SDS011;30778;53.574;7.770;2023-02-28T10:28:38;4.32;;;1.08;;
45039;SDS011;30778;53.574;7.770;2023-02-28T10:31:04;5.13;;;1.70;;
45039;SDS011;30778;53.574;7.770;2023-02-28T10:33:31;3.38;;;1.80;;
45039;SDS011;30778;53.574;7.770;2023-02-28T10:35:59;2.38;;;1.58;;
45039;SDS011;30778;53.574;7.770;2023-02-28T10:38:32;6.07;;;1.95;;
45039;SDS011;30778;53.574;7.770;2023-02-28T10:41:04;4.65;;;2.33;;
45039;SDS011;30778;53.574;7.770;2023-02-28T10:43:31;13.52;;;1.83;;
45039;SDS011;30778;53.574;7.770;2023-02-28T10:48:38;5.00;;;2.05;;
45039;SDS011;30778;53.574;7.770;2023-02-28T10:51:08;5.13;;;1.63;;
45039;SDS011;30778;53.574;7.770;2023-02-28T10:53:45;4.63;;;1.63;;
45039;SDS011;30778;53.574;7.770;2023-02-28T10:56:18;4.40;;;1.75;;
45039;SDS011;30778;53.574;7.770;2023-02-28T11:04:00;5.72;;;2.00;;
45039;SDS011;30778;53.574;7.770;2023-02-28T11:06:31;4.05;;;1.15;;
45039;SDS011;30778;53.574;7.770;2023-02-28T11:08:58;3.60;;;1.83;;
45039;SDS011;30778;53.574;7.770;2023-02-28T11:11:51;4.80;;;1.80;;
45039;SDS011;30778;53.574;7.770;2023-02-28T11:16:51;5.85;;;1.23;;
45039;SDS011;30778;53.574;7.770;2023-02-28T11:19:28;2.70;;;1.08;;
45039;SDS011;30778;53.574;7.770;2023-02-28T11:22:03;2.33;;;0.85;;
45039;SDS011;30778;53.574;7.770;2023-02-28T11:24:32;3.55;;;1.27;;
45039;SDS011;30778;53.574;7.770;2023-02-28T11:27:00;7.35;;;1.35;;
45039;SDS011;30778;53.574;7.770;2023-02-28T11:29:30;6.68;;;1.65;;
45039;SDS011;30778;53.574;7.770;2023-02-28T11:32:01;15.50;;;2.67;;
45039;SDS011;30778;53.574;7.770;2023-02-28T11:34:36;3.08;;;1.30;;
45039;SDS011;30778;53.574;7.770;2023-02-28T11:37:03;2.08;;;1.35;;
45039;SDS011;30778;53.574;7.770;2023-02-28T11:39:31;18.45;;;2.53;;
45039;SDS011;30778;53.574;7.770;2023-02-28T11:44:50;5.55;;;2.08;;
45039;SDS011;30778;53.574;7.770;2023-02-28T11:52:55;3.20;;;1.75;;
45039;SDS011;30778;53.574;7.770;2023-02-28T11:55:53;3.05;;;1.55;;
45039;SDS011;30778;53.574;7.770;2023-02-28T12:01:34;5.75;;;1.58;;
45039;SDS011;30778;53.574;7.770;2023-02-28T12:04:13;5.82;;;1.23;;
45039;SDS011;30778;53.574;7.770;2023-02-28T12:06:54;5.40;;;1.25;;
45039;SDS011;30778;53.574;7.770;2023-02-28T12:12:29;4.10;;;1.65;;
45039;SDS011;30778;53.574;7.770;2023-02-28T12:15:34;4.13;;;1.15;;
45039;SDS011;30778;53.574;7.770;2023-02-28T12:18:38;1.63;;;1.05;;
45039;SDS011;30778;53.574;7.770;2023-02-28T12:21:38;3.40;;;1.20;;
45039;SDS011;30778;53.574;7.770;2023-02-28T12:27:05;3.95;;;1.45;;
45039;SDS011;30778;53.574;7.770;2023-02-28T12:29:47;2.70;;;1.35;;
45039;SDS011;30778;53.574;7.770;2023-02-28T12:35:03;2.70;;;1.30;;
45039;SDS011;30778;53.574;7.770;2023-02-28T12:37:37;3.90;;;1.38;;
45039;SDS011;30778;53.574;7.770;2023-02-28T12:42:57;6.95;;;1.83;;
45039;SDS011;30778;53.574;7.770;2023-02-28T12:48:16;6.85;;;2.78;;
45039;SDS011;30778;53.574;7.770;2023-02-28T12:53:27;4.20;;;2.00;;
45039;SDS011;30778;53.574;7.770;2023-02-28T12:56:13;4.13;;;2.53;;
45039;SDS011;30778;53.574;7.770;2023-02-28T12:58:51;6.43;;;2.40;;
45039;SDS011;30778;53.574;7.770;2023-02-28T13:01:28;3.55;;;2.05;;
45039;SDS011;30778;53.574;7.770;2023-02-28T13:09:30;4.88;;;2.70;;
45039;SDS011;30778;53.574;7.770;2023-02-28T13:11:55;4.53;;;2.40;;
45039;SDS011;30778;53.574;7.770;2023-02-28T13:19:35;5.50;;;3.78;;
45039;SDS011;30778;53.574;7.770;2023-02-28T13:22:03;6.90;;;2.50;;
45039;SDS011;30778;53.574;7.770;2023-02-28T13:24:38;9.57;;;3.08;;
45039;SDS011;30778;53.574;7.770;2023-02-28T13:29:36;4.00;;;2.38;;
45039;SDS011;30778;53.574;7.770;2023-02-28T13:39:48;4.60;;;2.03;;
45039;SDS011;30778;53.574;7.770;2023-02-28T13:45:29;5.25;;;1.67;;
45039;SDS011;30778;53.574;7.770;2023-02-28T13:47:36;4.03;;;1.67;;
45039;SDS011;30778;53.574;7.770;2023-02-28T14:04:00;4.57;;;2.90;;
45039;SDS011;30778;53.574;7.770;2023-02-28T14:06:31;6.00;;;2.80;;
45039;SDS011;30778;53.574;7.770;2023-02-28T14:08:59;8.40;;;3.50;;
45039;SDS011;30778;53.574;7.770;2023-02-28T14:11:36;5.22;;;2.53;;
45039;SDS011;30778;53.574;7.770;2023-02-28T14:14:04;6.18;;;3.10;;
45039;SDS011;30778;53.574;7.770;2023-02-28T14:16:46;4.43;;;2.67;;
45039;SDS011;30778;53.574;7.770;2023-02-28T14:19:19;5.32;;;2.72;;
45039;SDS011;30778;53.574;7.770;2023-02-28T14:27:31;5.20;;;1.45;;
45039;SDS011;30778;53.574;7.770;2023-02-28T14:33:18;3.15;;;1.35;;
45039;SDS011;30778;53.574;7.770;2023-02-28T14:36:09;3.83;;;1.67;;
45039;SDS011;30778;53.574;7.770;2023-02-28T14:38:55;4.25;;;1.52;;
45039;SDS011;30778;53.574;7.770;2023-02-28T14:41:33;2.80;;;1.58;;
45039;SDS011;30778;53.574;7.770;2023-02-28T14:44:17;7.47;;;2.10;;
45039;SDS011;30778;53.574;7.770;2023-02-28T14:46:43;2.85;;;1.48;;
45039;SDS011;30778;53.574;7.770;2023-02-28T14:49:15;3.45;;;1.98;;
45039;SDS011;30778;53.574;7.770;2023-02-28T14:51:44;2.33;;;1.10;;
45039;SDS011;30778;53.574;7.770;2023-02-28T14:54:12;3.90;;;1.10;;
45039;SDS011;30778;53.574;7.770;2023-02-28T14:56:40;4.88;;;1.55;;
45039;SDS011;30778;53.574;7.770;2023-02-28T14:59:21;2.22;;;1.20;;
45039;SDS011;30778;53.574;7.770;2023-02-28T15:01:49;2.75;;;1.88;;
45039;SDS011;30778;53.574;7.770;2023-02-28T15:04:21;7.55;;;2.30;;
45039;SDS011;30778;53.574;7.770;2023-02-28T15:07:08;6.03;;;1.42;;
45039;SDS011;30778;53.574;7.770;2023-02-28T15:09:39;3.60;;;1.27;;
45039;SDS011;30778;53.574;7.770;2023-02-28T15:12:04;1.90;;;1.48;;
45039;SDS011;30778;53.574;7.770;2023-02-28T15:14:30;3.38;;;1.52;;
45039;SDS011;30778;53.574;7.770;2023-02-28T15:17:02;5.65;;;1.73;;
45039;SDS011;30778;53.574;7.770;2023-02-28T15:19:33;3.03;;;1.63;;
45039;SDS011;30778;53.574;7.770;2023-02-28T15:24:40;3.78;;;2.45;;
45039;SDS011;30778;53.574;7.770;2023-02-28T15:27:11;3.58;;;2.00;;
45039;SDS011;30778;53.574;7.770;2023-02-28T15:29:45;4.03;;;2.20;;
45039;SDS011;30778;53.574;7.770;2023-02-28T15:32:24;4.20;;;2.10;;
45039;SDS011;30778;53.574;7.770;2023-02-28T15:34:53;5.07;;;1.85;;
45039;SDS011;30778;53.574;7.770;2023-02-28T15:39:58;3.22;;;2.08;;
45039;SDS011;30778;53.574;7.770;2023-02-28T15:42:32;5.63;;;2.63;;
45039;SDS011;30778;53.574;7.770;2023-02-28T15:44:58;5.32;;;2.80;;
45039;SDS011;30778;53.574;7.770;2023-02-28T15:47:26;4.68;;;1.90;;
45039;SDS011;30778;53.574;7.770;2023-02-28T15:49:58;3.80;;;2.50;;
45039;SDS011;30778;53.574;7.770;2023-02-28T15:54:56;5.82;;;3.10;;
45039;SDS011;30778;53.574;7.770;2023-02-28T15:57:24;63.83;;;21.98;;
45039;SDS011;30778;53.574;7.770;2023-02-28T16:00:00;91.05;;;31.73;;
45039;SDS011;30778;53.574;7.770;2023-02-28T16:02:37;19.50;;;7.93;;
45039;SDS011;30778;53.574;7.770;2023-02-28T16:07:38;7.70;;;4.10;;
45039;SDS011;30778;53.574;7.770;2023-02-28T16:10:05;5.90;;;3.45;;
45039;SDS011;30778;53.574;7.770;2023-02-28T16:12:32;5.78;;;3.28;;
45039;SDS011;30778;53.574;7.770;2023-02-28T16:15:05;11.98;;;5.32;;
45039;SDS011;30778;53.574;7.770;2023-02-28T16:17:42;4.65;;;2.97;;
45039;SDS011;30778;53.574;7.770;2023-02-28T16:20:14;8.70;;;4.47;;
45039;SDS011;30778;53.574;7.770;2023-02-28T16:22:42;9.43;;;4.13;;
45039;SDS011;30778;53.574;7.770;2023-02-28T16:25:12;10.00;;;6.82;;
45039;SDS011;30778;53.574;7.770;2023-02-28T16:27:38;14.73;;;6.85;;
45039;SDS011;30778;53.574;7.770;2023-02-28T16:30:05;8.52;;;3.83;;
45039;SDS011;30778;53.574;7.770;2023-02-28T16:32:35;5.25;;;3.03;;
45039;SDS011;30778;53.574;7.770;2023-02-28T16:35:02;5.22;;;2.92;;
45039;SDS011;30778;53.574;7.770;2023-02-28T16:37:27;6.13;;;3.08;;
45039;SDS011;30778;53.574;7.770;2023-02-28T16:39:53;5.78;;;2.80;;
45039;SDS011;30778;53.574;7.770;2023-02-28T16:42:28;7.50;;;3.50;;
45039;SDS011;30778;53.574;7.770;2023-02-28T16:44:54;5.13;;;2.90;;
45039;SDS011;30778;53.574;7.770;2023-02-28T16:47:21;7.82;;;3.20;;
45039;SDS011;30778;53.574;7.770;2023-02-28T16:49:47;8.82;;;4.22;;
45039;SDS011;30778;53.574;7.770;2023-02-28T16:52:13;6.88;;;3.80;;
45039;SDS011;30778;53.574;7.770;2023-02-28T16:54:39;7.03;;;3.75;;
45039;SDS011;30778;53.574;7.770;2023-02-28T16:57:06;6.88;;;3.92;;
45039;SDS011;30778;53.574;7.770;2023-02-28T16:59:40;6.70;;;3.22;;
45039;SDS011;30778;53.574;7.770;2023-02-28T17:02:24;10.13;;;4.20;;
45039;SDS011;30778;53.574;7.770;2023-02-28T17:04:49;5.50;;;3.35;;
45039;SDS011;30778;53.574;7.770;2023-02-28T17:07:15;6.47;;;3.88;;
45039;SDS011;30778;53.574;7.770;2023-02-28T17:09:42;8.93;;;5.32;;
45039;SDS011;30778;53.574;7.770;2023-02-28T17:12:08;10.88;;;5.65;;
45039;SDS011;30778;53.574;7.770;2023-02-28T17:14:34;8.05;;;4.40;;
45039;SDS011;30778;53.574;7.770;2023-02-28T17:17:00;11.35;;;6.07;;
45039;SDS011;30778;53.574;7.770;2023-02-28T17:19:25;9.77;;;5.15;;
45039;SDS011;30778;53.574;7.770;2023-02-28T17:21:51;10.05;;;5.75;;
45039;SDS011;30778;53.574;7.770;2023-02-28T17:24:17;13.07;;;5.45;;
45039;SDS011;30778;53.574;7.770;2023-02-28T17:26:42;10.02;;;4.32;;
45039;SDS011;30778;53.574;7.770;2023-02-28T17:29:13;7.18;;;3.90;;
45039;SDS011;30778;53.574;7.770;2023-02-28T17:31:41;6.90;;;4.07;;
45039;SDS011;30778;53.574;7.770;2023-02-28T17:34:06;8.45;;;3.53;;